createdAt,value
2019-02-27T00:01:31.170Z,70.40
2019-02-27T00:04:02.408Z,70.50
2019-02-27T00:06:34.879Z,70.40
2019-02-27T00:09:44.622Z,70.40
2019-02-27T00:12:16.964Z,70.60
2019-02-27T00:14:45.622Z,70.40
2019-02-27T00:17:15.070Z,70.40
2019-02-27T00:19:45.714Z,70.20
2019-02-27T00:22:33.078Z,70.20
2019-02-27T00:25:03.469Z,70.40
2019-02-27T00:27:41.374Z,70.30
2019-02-27T00:30:11.498Z,70.40
2019-02-27T00:32:41.108Z,70.50
2019-02-27T00:35:10.206Z,70.40
2019-02-27T00:37:39.711Z,70.30
2019-02-27T00:40:08.922Z,70.30
2019-02-27T00:42:38.160Z,70.30
2019-02-27T00:45:08.802Z,70.20
2019-02-27T00:47:38.257Z,70.20
2019-02-27T00:50:07.475Z,70.30
2019-02-27T00:52:36.735Z,70.20
2019-02-27T00:55:06.442Z,70.30
2019-02-27T00:57:35.659Z,70.30
2019-02-27T01:00:07.133Z,70.30
2019-02-27T01:02:36.618Z,70.30
2019-02-27T01:05:08.717Z,70.20
2019-02-27T01:07:37.367Z,70.20
2019-02-27T01:10:12.051Z,70.20
2019-02-27T01:12:52.908Z,70.20
2019-02-27T01:15:22.390Z,70.30
2019-02-27T01:17:51.732Z,70.10
2019-02-27T01:20:21.030Z,70.10
2019-02-27T01:22:50.098Z,70.10
2019-02-27T01:26:01.735Z,70.10
2019-02-27T01:28:30.951Z,70.20
2019-02-27T01:31:00.092Z,70.10
2019-02-27T01:33:29.480Z,70.20
2019-02-27T01:35:58.656Z,70.20
2019-02-27T01:39:13.432Z,70.00
2019-02-27T01:44:17.603Z,70.20
2019-02-27T01:46:46.672Z,70.20
2019-02-27T01:49:16.692Z,70.20
2019-02-27T01:51:46.179Z,70.50
2019-02-27T01:54:15.738Z,70.40
2019-02-27T01:56:45.142Z,70.40
2019-02-27T01:59:16.881Z,70.40
2019-02-27T02:01:45.193Z,70.20
2019-02-27T02:04:14.415Z,70.20
2019-02-27T02:06:43.561Z,70.10
2019-02-27T02:09:39.182Z,70.10
2019-02-27T02:12:17.102Z,70.30
2019-02-27T02:14:56.119Z,70.40
2019-02-27T02:18:28.346Z,70.40
2019-02-27T02:21:16.483Z,70.40
2019-02-27T02:24:20.940Z,70.40
2019-02-27T02:27:13.453Z,70.40
2019-02-27T02:30:18.082Z,70.50
2019-02-27T02:33:30.313Z,70.60
2019-02-27T02:36:28.976Z,70.60
2019-02-27T02:39:45.404Z,70.60
2019-02-27T02:42:31.982Z,70.70
2019-02-27T02:45:33.747Z,70.60
2019-02-27T02:48:20.236Z,70.60
2019-02-27T02:51:28.988Z,70.50
2019-02-27T02:54:48.629Z,70.40
2019-02-27T02:57:42.836Z,70.40
2019-02-27T03:00:45.739Z,70.40
2019-02-27T03:03:43.797Z,70.40
2019-02-27T03:10:20.745Z,70.50
2019-02-27T03:13:30.029Z,70.60
2019-02-27T03:16:41.130Z,70.60
2019-02-27T03:19:41.807Z,70.60
2019-02-27T03:22:40.375Z,71.20
2019-02-27T03:25:24.505Z,70.50
2019-02-27T03:28:09.022Z,70.50
2019-02-27T03:30:45.777Z,70.60
2019-02-27T03:33:53.299Z,70.80
2019-02-27T03:36:49.925Z,70.70
2019-02-27T03:39:52.991Z,70.80
2019-02-27T03:42:49.459Z,70.90
2019-02-27T03:45:39.934Z,70.90
2019-02-27T03:48:37.581Z,71.00
2019-02-27T03:51:30.994Z,71.20
2019-02-27T03:54:24.141Z,71.20
2019-02-27T03:57:41.945Z,71.20
2019-02-27T04:00:44.594Z,71.30
2019-02-27T04:03:37.942Z,71.40
2019-02-27T04:06:25.028Z,71.30
2019-02-27T04:09:35.816Z,71.20
2019-02-27T04:12:05.005Z,71.10
2019-02-27T04:14:40.184Z,71.00
2019-02-27T04:17:07.503Z,71.00
2019-02-27T04:19:39.388Z,71.00
2019-02-27T04:22:38.144Z,71.00
2019-02-27T04:25:07.968Z,71.10
2019-02-27T04:27:37.022Z,71.10
2019-02-27T04:30:06.530Z,71.00
2019-02-27T04:32:35.985Z,71.00
2019-02-27T04:35:06.339Z,71.00
2019-02-27T04:37:35.879Z,71.00
2019-02-27T04:40:05.243Z,71.00
2019-02-27T04:42:34.520Z,71.10
2019-02-27T04:45:03.703Z,70.90
2019-02-27T04:47:33.057Z,70.80
2019-02-27T04:50:02.172Z,70.80
2019-02-27T04:52:31.507Z,70.80
2019-02-27T04:55:00.664Z,70.80
2019-02-27T04:57:30.815Z,70.90
2019-02-27T05:00:00.600Z,70.90
2019-02-27T05:02:30.038Z,70.90
2019-02-27T05:04:59.203Z,71.60
2019-02-27T05:07:28.607Z,70.80
2019-02-27T05:09:57.972Z,70.90
2019-02-27T05:12:26.985Z,70.80
2019-02-27T05:15:32.436Z,70.80
2019-02-27T05:18:01.888Z,70.80
2019-02-27T05:20:31.431Z,70.70
2019-02-27T05:23:01.234Z,70.60
2019-02-27T05:26:36.769Z,70.60
2019-02-27T05:29:05.997Z,70.60
2019-02-27T05:31:35.293Z,70.40
2019-02-27T05:37:44.890Z,70.70
2019-02-27T05:40:14.109Z,70.80
2019-02-27T05:42:43.547Z,70.70
2019-02-27T05:45:14.313Z,70.90
2019-02-27T05:47:45.679Z,71.00
2019-02-27T05:50:14.739Z,71.10
2019-02-27T05:52:48.395Z,71.00
2019-02-27T05:56:09.528Z,71.00
2019-02-27T05:58:41.015Z,71.00
2019-02-27T06:01:11.435Z,71.10
2019-02-27T06:03:40.602Z,71.30
2019-02-27T06:06:15.169Z,71.30
2019-02-27T06:08:44.587Z,71.40
2019-02-27T06:11:14.770Z,71.20
2019-02-27T06:13:45.073Z,71.30
2019-02-27T06:16:15.206Z,71.20
2019-02-27T06:18:44.824Z,71.40
2019-02-27T06:21:21.577Z,71.10
2019-02-27T06:23:50.782Z,71.30
2019-02-27T06:26:26.988Z,71.20
2019-02-27T06:28:56.949Z,71.30
2019-02-27T06:31:27.654Z,71.40
2019-02-27T06:34:11.257Z,71.60
2019-02-27T06:36:42.862Z,71.70
2019-02-27T06:39:12.294Z,71.70
2019-02-27T06:42:00.311Z,71.70
2019-02-27T06:44:29.614Z,71.90
2019-02-27T06:46:58.901Z,71.80
2019-02-27T06:49:28.431Z,71.70
2019-02-27T06:51:57.822Z,71.80
2019-02-27T06:54:27.227Z,71.70
2019-02-27T06:56:56.686Z,71.80
2019-02-27T06:59:35.694Z,71.80
2019-02-27T07:02:05.511Z,71.90
2019-02-27T07:04:36.449Z,71.70
2019-02-27T07:07:05.509Z,71.70
2019-02-27T07:09:36.668Z,71.70
2019-02-27T07:12:07.129Z,71.90
2019-02-27T07:14:36.544Z,71.80
2019-02-27T07:17:07.086Z,71.90
2019-02-27T07:19:36.012Z,71.80
2019-02-27T07:22:06.247Z,71.70
2019-02-27T07:24:36.722Z,71.90
2019-02-27T07:27:05.576Z,71.60
2019-02-27T07:29:34.424Z,71.50
2019-02-27T07:32:03.668Z,71.30
2019-02-27T07:34:32.499Z,71.20
2019-02-27T07:37:01.348Z,71.10
2019-02-27T07:39:32.540Z,70.90
2019-02-27T07:42:01.144Z,70.80
2019-02-27T07:44:32.236Z,70.70
2019-02-27T07:47:02.293Z,70.60
2019-02-27T07:49:31.598Z,70.50
2019-02-27T07:52:00.888Z,70.60
2019-02-27T07:54:29.762Z,70.50
2019-02-27T07:56:58.871Z,70.50
2019-02-27T07:59:27.854Z,70.60
2019-02-27T08:02:02.348Z,70.40
2019-02-27T08:04:29.533Z,70.30
2019-02-27T08:06:58.790Z,70.20
2019-02-27T08:09:30.208Z,70.30
2019-02-27T08:11:58.877Z,70.30
2019-02-27T08:14:32.078Z,70.20
2019-02-27T08:17:00.382Z,70.10
2019-02-27T08:19:31.488Z,70.30
2019-02-27T08:22:00.722Z,70.20
2019-02-27T08:24:30.300Z,70.20
2019-02-27T08:27:01.124Z,70.30
2019-02-27T08:29:30.655Z,70.30
2019-02-27T08:32:01.190Z,70.30
2019-02-27T08:34:30.390Z,70.40
2019-02-27T08:36:59.417Z,70.40
2019-02-27T08:39:28.483Z,70.50
2019-02-27T08:42:03.134Z,70.60
2019-02-27T08:44:30.385Z,70.70
2019-02-27T08:46:59.568Z,70.60
2019-02-27T08:49:43.509Z,70.60
2019-02-27T08:52:13.102Z,70.70
2019-02-27T08:54:43.808Z,70.60
2019-02-27T08:57:12.931Z,70.70
2019-02-27T08:59:42.273Z,70.70
2019-02-27T09:02:11.718Z,70.80
2019-02-27T09:04:42.808Z,70.90
2019-02-27T09:07:11.802Z,71.00
2019-02-27T09:09:41.047Z,71.00
2019-02-27T09:12:13.213Z,71.00
2019-02-27T09:14:40.944Z,70.90
2019-02-27T09:17:10.292Z,70.80
2019-02-27T09:19:44.980Z,70.70
2019-02-27T09:22:10.934Z,70.60
2019-02-27T09:24:40.111Z,70.20
2019-02-27T09:27:09.214Z,70.20
2019-02-27T09:29:38.210Z,69.90
2019-02-27T09:32:09.298Z,69.80
2019-02-27T09:34:39.582Z,69.70
2019-02-27T09:37:08.618Z,69.50
2019-02-27T09:39:38.761Z,69.30
2019-02-27T09:42:07.703Z,69.10
2019-02-27T09:44:37.307Z,68.90
2019-02-27T09:47:06.610Z,68.50
2019-02-27T09:49:38.047Z,67.40
2019-02-27T09:52:05.731Z,67.40
2019-02-27T09:54:34.837Z,67.30
2019-02-27T09:57:04.070Z,67.20
2019-02-27T09:59:53.705Z,66.90
2019-02-27T10:02:24.009Z,66.80
2019-02-27T10:04:55.430Z,66.60
2019-02-27T10:07:24.606Z,66.50
2019-02-27T10:09:54.034Z,66.50
2019-02-27T10:12:27.119Z,66.20
2019-02-27T10:14:54.171Z,66.10
2019-02-27T10:17:28.984Z,66.00
2019-02-27T10:20:19.022Z,65.80
2019-02-27T10:23:00.390Z,65.70
2019-02-27T10:25:33.809Z,65.80
2019-02-27T10:28:04.458Z,65.70
2019-02-27T10:30:33.974Z,65.60
2019-02-27T10:33:03.641Z,65.40
2019-02-27T10:35:34.652Z,65.30
2019-02-27T10:38:04.642Z,65.20
2019-02-27T10:40:34.028Z,65.00
2019-02-27T10:43:03.289Z,65.00
2019-02-27T10:45:32.508Z,64.80
2019-02-27T10:48:01.618Z,64.80
2019-02-27T10:50:31.033Z,64.90
2019-02-27T10:53:07.246Z,64.50
2019-02-27T10:55:36.596Z,64.30
2019-02-27T10:58:07.660Z,64.10
2019-02-27T11:00:38.946Z,64.00
2019-02-27T11:03:08.527Z,64.00
2019-02-27T11:05:40.161Z,63.80
2019-02-27T11:08:11.158Z,63.60
2019-02-27T11:13:16.459Z,63.60
2019-02-27T11:21:04.304Z,63.20
2019-02-27T11:24:03.729Z,63.10
2019-02-27T11:33:58.873Z,62.40
2019-02-27T11:36:39.074Z,62.00
2019-02-27T11:39:07.601Z,61.90
2019-02-27T11:42:09.057Z,62.00
2019-02-27T11:45:08.801Z,61.90
2019-02-27T11:47:57.509Z,61.80
2019-02-27T11:54:14.576Z,61.80
2019-02-27T11:59:20.605Z,61.60
2019-02-27T12:01:50.326Z,61.70
2019-02-27T12:11:09.720Z,61.30
2019-02-27T12:13:47.206Z,60.80
2019-02-27T12:16:51.742Z,61.00
2019-02-27T12:19:20.388Z,61.00
2019-02-27T12:21:53.907Z,61.20
2019-02-27T12:24:23.276Z,61.10
2019-02-27T12:27:02.007Z,61.20
2019-02-27T12:29:41.910Z,61.20
2019-02-27T12:35:50.544Z,61.00
2019-02-27T12:38:19.903Z,61.10
2019-02-27T12:41:15.589Z,60.80
2019-02-27T12:44:01.378Z,60.60
2019-02-27T12:46:34.208Z,60.40
2019-02-27T12:49:28.559Z,60.30
2019-02-27T13:06:58.518Z,60.50
2019-02-27T13:13:31.205Z,60.10
2019-02-27T13:20:56.149Z,60.10
2019-02-27T13:30:57.213Z,59.50
2019-02-27T13:38:19.805Z,59.20
2019-02-27T14:09:26.993Z,59.00
2019-02-27T14:11:58.691Z,58.90
2019-02-27T14:14:27.923Z,58.80
2019-02-27T14:17:00.557Z,58.60
2019-02-27T14:19:29.958Z,58.70
2019-02-27T14:21:58.868Z,58.40
2019-02-27T14:24:28.065Z,58.50
2019-02-27T14:26:57.288Z,58.30
2019-02-27T14:29:35.449Z,58.00
2019-02-27T14:32:04.604Z,57.50
2019-02-27T14:34:35.003Z,57.20
2019-02-27T14:37:04.559Z,57.40
2019-02-27T14:39:34.025Z,57.30
2019-02-27T14:42:03.500Z,57.50
2019-02-27T14:44:36.149Z,57.50
2019-02-27T14:47:07.221Z,57.50
2019-02-27T14:49:37.480Z,57.60
2019-02-27T14:52:06.621Z,57.70
2019-02-27T14:54:35.912Z,57.80
2019-02-27T15:00:50.587Z,57.90
2019-02-27T15:03:20.063Z,57.90
2019-02-27T15:05:52.567Z,57.80
2019-02-27T15:12:01.182Z,57.50
2019-02-27T15:14:31.747Z,57.20
2019-02-27T15:17:05.066Z,57.10
2019-02-27T15:23:18.375Z,57.20
2019-02-27T15:25:48.335Z,57.10
2019-02-27T15:28:17.451Z,57.30
2019-02-27T15:30:47.474Z,57.30
2019-02-27T15:33:18.665Z,57.20
2019-02-27T15:35:48.106Z,57.20
2019-02-27T15:41:58.230Z,57.30
2019-02-27T15:44:27.838Z,57.30
2019-02-27T15:47:47.138Z,57.30
2019-02-27T15:50:22.667Z,57.60
2019-02-27T15:52:49.368Z,57.60
2019-02-27T15:55:18.442Z,57.60
2019-02-27T15:57:52.100Z,57.70
2019-02-27T16:00:21.542Z,57.60
2019-02-27T16:02:50.867Z,57.50
2019-02-27T16:05:21.338Z,57.60
2019-02-27T16:07:50.646Z,57.80
2019-02-27T16:10:20.968Z,57.70
2019-02-27T16:12:50.434Z,57.70
2019-02-27T16:15:21.288Z,57.70
2019-02-27T16:17:51.192Z,58.40
2019-02-27T16:20:20.408Z,57.90
2019-02-27T16:23:40.177Z,57.90
2019-02-27T16:26:10.072Z,57.90
2019-02-27T16:28:39.667Z,57.80
2019-02-27T16:31:10.285Z,57.80
2019-02-27T16:33:47.559Z,57.80
2019-02-27T16:36:17.492Z,57.60
2019-02-27T16:39:09.786Z,57.70
2019-02-27T16:41:45.074Z,57.80
2019-02-27T16:44:11.143Z,57.60
2019-02-27T16:46:44.730Z,57.70
2019-02-27T16:52:52.050Z,57.80
2019-02-27T16:55:26.345Z,57.80
2019-02-27T17:04:53.297Z,57.80
2019-02-27T17:05:05.782Z,57.70
2019-02-27T17:07:25.769Z,57.90
2019-02-27T17:09:54.027Z,57.90
2019-02-27T17:12:38.287Z,58.00
2019-02-27T17:15:08.056Z,58.10
2019-02-27T17:17:37.412Z,58.10
2019-02-27T17:20:11.516Z,58.20
2019-02-27T17:22:38.952Z,58.30
2019-02-27T17:25:15.223Z,58.30
2019-02-27T17:27:49.893Z,58.40
2019-02-27T17:30:57.200Z,58.40
2019-02-27T17:37:07.209Z,58.60
2019-02-27T17:39:36.466Z,58.60
2019-02-27T17:42:05.492Z,58.60
2019-02-27T17:44:37.899Z,58.70
2019-02-27T17:47:08.249Z,58.80
2019-02-27T17:49:37.146Z,58.80
2019-02-27T17:52:11.259Z,58.90
2019-02-27T17:54:36.608Z,58.90
2019-02-27T17:57:05.845Z,58.90
2019-02-27T17:59:35.914Z,58.90
2019-02-27T18:02:04.920Z,58.90
2019-02-27T18:04:51.020Z,59.00
2019-02-27T18:07:17.616Z,59.10
2019-02-27T18:09:46.537Z,59.30
2019-02-27T18:12:15.507Z,59.30
2019-02-27T18:14:46.961Z,59.40
2019-02-27T18:17:15.402Z,59.50
2019-02-27T18:19:54.639Z,59.50
2019-02-27T18:22:23.814Z,59.60
2019-02-27T18:24:54.978Z,59.50
2019-02-27T18:27:25.411Z,59.60
2019-02-27T18:29:54.595Z,59.70
2019-02-27T18:32:23.509Z,59.70
2019-02-27T18:35:30.030Z,59.90
2019-02-27T18:38:01.491Z,60.00
2019-02-27T18:40:37.506Z,60.10
2019-02-27T18:43:11.518Z,60.20
2019-02-27T18:45:42.733Z,60.30
2019-02-27T18:48:12.682Z,60.30
2019-02-27T18:50:42.265Z,60.40
2019-02-27T18:53:15.169Z,60.40
2019-02-27T18:58:20.899Z,60.70
2019-02-27T19:00:49.813Z,60.70
2019-02-27T19:03:19.242Z,60.70
2019-02-27T19:06:06.537Z,60.70
2019-02-27T19:08:35.951Z,60.80
2019-02-27T19:11:06.402Z,61.50
2019-02-27T19:13:35.558Z,60.80
2019-02-27T19:16:04.986Z,60.90
2019-02-27T19:18:34.019Z,61.00
2019-02-27T19:21:26.531Z,61.00
2019-02-27T19:23:58.327Z,62.20
2019-02-27T19:26:27.797Z,62.10
2019-02-27T19:28:59.521Z,62.20
2019-02-27T19:31:27.464Z,62.30
2019-02-27T19:33:56.767Z,62.40
2019-02-27T19:36:31.439Z,62.50
2019-02-27T19:39:00.981Z,63.30
2019-02-27T19:41:38.792Z,62.60
2019-02-27T19:44:03.492Z,62.70
2019-02-27T19:46:33.861Z,62.70
2019-02-27T19:49:09.745Z,62.80
2019-02-27T19:51:38.815Z,62.90
2019-02-27T19:54:11.520Z,62.80
2019-02-27T19:56:45.281Z,62.90
2019-02-27T19:59:14.198Z,63.00
2019-02-27T20:01:48.324Z,63.30
2019-02-27T20:04:14.060Z,63.30
2019-02-27T20:06:43.606Z,63.30
2019-02-27T20:09:19.092Z,63.30
2019-02-27T20:11:44.648Z,63.40
2019-02-27T20:14:14.256Z,63.50
2019-02-27T20:16:43.247Z,63.50
2019-02-27T20:19:12.421Z,63.60
2019-02-27T20:21:46.387Z,63.70
2019-02-27T20:24:47.380Z,63.80
2019-02-27T20:27:16.488Z,63.80
2019-02-27T20:29:45.753Z,63.80
2019-02-27T20:32:14.902Z,63.90
2019-02-27T20:34:45.902Z,63.80
2019-02-27T20:37:15.398Z,64.60
2019-02-27T20:39:44.650Z,63.90
2019-02-27T20:42:14.469Z,64.00
2019-02-27T20:44:43.963Z,64.00
2019-02-27T20:47:13.515Z,64.10
2019-02-27T20:49:44.673Z,64.10
2019-02-27T20:52:15.042Z,64.30
2019-02-27T20:54:44.258Z,64.30
2019-02-27T20:57:13.624Z,64.30
2019-02-27T20:59:42.718Z,64.20
2019-02-27T21:02:21.829Z,64.20
2019-02-27T21:04:50.649Z,64.30
2019-02-27T21:07:26.037Z,64.30
2019-02-27T21:09:53.500Z,64.20
2019-02-27T21:12:22.529Z,64.30
2019-02-27T21:14:51.456Z,64.40
2019-02-27T21:17:21.734Z,64.50
2019-02-27T21:19:52.444Z,64.70
2019-02-27T21:22:21.680Z,64.80
2019-02-27T21:24:50.977Z,64.90
2019-02-27T21:27:20.170Z,65.00
2019-02-27T21:29:49.350Z,65.10
2019-02-27T21:32:18.195Z,65.20
2019-02-27T21:35:14.654Z,65.30
2019-02-27T21:37:45.502Z,65.50
2019-02-27T21:40:15.298Z,65.30
2019-02-27T21:42:44.420Z,65.30
2019-02-27T21:45:15.532Z,65.30
2019-02-27T21:47:44.758Z,65.30
2019-02-27T21:50:15.611Z,65.30
2019-02-27T21:52:44.676Z,65.30
2019-02-27T21:55:14.421Z,65.40
2019-02-27T21:57:43.457Z,65.40
2019-02-27T22:00:15.978Z,65.50
2019-02-27T22:02:45.304Z,65.60
2019-02-27T22:05:18.414Z,65.60
2019-02-27T22:07:45.004Z,65.60
2019-02-27T22:10:19.736Z,65.50
2019-02-27T22:12:47.377Z,65.50
2019-02-27T22:15:21.912Z,65.50
2019-02-27T22:17:49.602Z,65.60
2019-02-27T22:20:18.811Z,65.60
2019-02-27T22:22:48.111Z,65.60
2019-02-27T22:25:16.984Z,65.60
2019-02-27T22:27:46.731Z,65.70
2019-02-27T22:30:16.404Z,65.70
2019-02-27T22:32:48.078Z,65.90
2019-02-27T22:35:16.253Z,65.80
2019-02-27T22:37:45.320Z,65.90
2019-02-27T22:40:18.448Z,66.00
2019-02-27T22:42:48.615Z,66.00
2019-02-27T22:45:18.596Z,66.10
2019-02-27T22:47:47.911Z,66.00
2019-02-27T22:50:16.967Z,66.10
2019-02-27T22:52:46.266Z,66.10
2019-02-27T22:55:15.207Z,66.10
2019-02-27T22:57:44.183Z,66.30
2019-02-27T23:00:56.730Z,66.50
2019-02-27T23:03:26.696Z,66.50
2019-02-27T23:05:55.565Z,67.30
2019-02-27T23:08:24.797Z,66.60
2019-02-27T23:10:53.969Z,66.70
2019-02-27T23:13:23.264Z,66.70
2019-02-27T23:15:58.051Z,66.90
2019-02-27T23:18:23.331Z,66.90
2019-02-27T23:20:52.526Z,67.10
2019-02-27T23:23:22.776Z,66.80
2019-02-27T23:25:51.785Z,66.90
2019-02-27T23:28:20.808Z,67.00
2019-02-27T23:30:49.748Z,67.00
2019-02-27T23:33:19.055Z,67.00
2019-02-27T23:35:50.149Z,67.10
2019-02-27T23:38:18.510Z,67.30
2019-02-27T23:40:48.980Z,67.30
2019-02-27T23:43:19.670Z,67.20
2019-02-27T23:45:48.952Z,67.30
2019-02-27T23:48:17.813Z,67.40
2019-02-27T23:50:46.899Z,67.50
2019-02-27T23:53:15.787Z,67.40
2019-02-27T23:55:45.458Z,67.50
2019-02-27T23:58:14.700Z,67.50
